createdAt,value
2022-11-09T00:00:49.294Z,4.45
2022-11-09T00:03:16.801Z,4.47
2022-11-09T00:05:44.353Z,4.65
2022-11-09T00:08:12.010Z,6.13
2022-11-09T00:10:39.080Z,5.25
2022-11-09T00:13:06.749Z,6.47
2022-11-09T00:15:33.663Z,5.80
2022-11-09T00:18:02.856Z,6.50
2022-11-09T00:20:30.957Z,5.57
2022-11-09T00:22:57.979Z,5.82
2022-11-09T00:25:26.046Z,4.97
2022-11-09T00:27:54.305Z,5.88
2022-11-09T00:30:22.702Z,4.70
2022-11-09T00:32:49.651Z,4.75
2022-11-09T00:35:16.698Z,4.85
2022-11-09T00:37:43.715Z,6.47
2022-11-09T00:40:11.536Z,6.28
2022-11-09T00:42:38.960Z,4.70
2022-11-09T00:45:06.381Z,4.60
2022-11-09T00:47:33.733Z,4.57
2022-11-09T00:50:01.867Z,3.63
2022-11-09T00:52:28.896Z,4.53
2022-11-09T00:54:55.841Z,4.75
2022-11-09T00:57:23.011Z,4.78
2022-11-09T00:59:52.143Z,4.35
2022-11-09T01:02:19.401Z,5.10
2022-11-09T01:04:46.301Z,4.72
2022-11-09T01:07:17.296Z,4.28
2022-11-09T01:09:44.264Z,4.40
2022-11-09T01:12:11.216Z,4.25
2022-11-09T01:14:38.115Z,4.10
2022-11-09T01:17:05.193Z,3.90
2022-11-09T01:19:32.248Z,3.78
2022-11-09T01:21:59.210Z,3.90
2022-11-09T01:24:29.309Z,3.97
2022-11-09T01:26:56.299Z,4.40
2022-11-09T01:29:23.373Z,3.80
2022-11-09T01:31:51.781Z,3.83
2022-11-09T01:34:18.693Z,3.78
2022-11-09T01:36:45.873Z,3.83
2022-11-09T01:39:12.784Z,3.50
2022-11-09T01:41:39.758Z,3.80
2022-11-09T01:44:07.018Z,4.38
2022-11-09T01:46:55.743Z,3.90
2022-11-09T01:49:38.029Z,4.00
2022-11-09T01:52:20.319Z,3.90
2022-11-09T01:57:26.070Z,3.92
2022-11-09T01:59:58.624Z,3.67
2022-11-09T02:02:25.804Z,3.63
2022-11-09T02:05:01.708Z,3.53
2022-11-09T02:07:29.600Z,3.63
2022-11-09T02:10:36.167Z,3.78
2022-11-09T02:13:06.834Z,3.58
2022-11-09T02:15:45.243Z,3.80
2022-11-09T02:18:12.898Z,3.45
2022-11-09T02:20:52.494Z,3.75
2022-11-09T02:25:55.829Z,3.40
2022-11-09T02:28:23.767Z,3.75
2022-11-09T02:30:53.955Z,3.70
2022-11-09T02:33:22.074Z,3.30
2022-11-09T02:35:49.168Z,3.60
2022-11-09T02:38:16.565Z,3.42
2022-11-09T02:40:48.220Z,3.78
2022-11-09T02:43:18.755Z,4.00
2022-11-09T02:45:46.284Z,3.60
2022-11-09T02:48:14.360Z,3.95
2022-11-09T02:50:41.496Z,3.60
2022-11-09T02:53:08.430Z,3.65
2022-11-09T02:55:38.717Z,3.58
2022-11-09T02:58:07.607Z,3.63
2022-11-09T03:00:35.737Z,3.45
2022-11-09T03:03:04.567Z,4.03
2022-11-09T03:05:32.434Z,3.60
2022-11-09T03:08:02.742Z,4.25
2022-11-09T03:10:33.197Z,3.95
2022-11-09T03:13:01.163Z,4.00
2022-11-09T03:15:28.393Z,4.07
2022-11-09T03:17:56.493Z,4.13
2022-11-09T03:20:25.059Z,4.05
2022-11-09T03:22:57.541Z,4.38
2022-11-09T03:25:24.938Z,3.67
2022-11-09T03:28:02.719Z,3.88
2022-11-09T03:30:30.097Z,4.45
2022-11-09T03:33:03.262Z,4.07
2022-11-09T03:35:31.476Z,3.75
2022-11-09T03:37:58.677Z,3.55
2022-11-09T03:40:26.658Z,3.70
2022-11-09T03:42:53.911Z,3.53
2022-11-09T03:45:21.165Z,3.55
2022-11-09T03:47:49.954Z,3.70
2022-11-09T03:50:18.221Z,3.45
2022-11-09T03:52:46.792Z,3.50
2022-11-09T03:55:15.669Z,3.00
2022-11-09T03:57:44.874Z,3.65
2022-11-09T04:00:14.420Z,3.58
2022-11-09T04:02:42.053Z,3.47
2022-11-09T04:05:10.223Z,4.50
2022-11-09T04:07:38.179Z,3.78
2022-11-09T04:10:06.758Z,3.55
2022-11-09T04:12:35.648Z,3.33
2022-11-09T04:15:02.661Z,3.63
2022-11-09T04:17:30.022Z,3.33
2022-11-09T04:19:57.988Z,4.15
2022-11-09T04:22:24.985Z,4.15
2022-11-09T04:24:52.527Z,4.47
2022-11-09T04:27:20.530Z,4.10
2022-11-09T04:29:48.692Z,3.97
2022-11-09T04:32:16.647Z,3.70
2022-11-09T04:34:44.301Z,3.83
2022-11-09T04:37:11.572Z,3.75
2022-11-09T04:39:39.073Z,4.70
2022-11-09T04:42:06.215Z,5.78
2022-11-09T04:44:34.552Z,7.40
2022-11-09T04:47:01.613Z,19.23
2022-11-09T04:49:31.040Z,21.27
2022-11-09T04:51:57.950Z,19.20
2022-11-09T04:54:25.357Z,16.42
2022-11-09T04:56:52.326Z,16.98
2022-11-09T04:59:19.996Z,11.88
2022-11-09T05:01:46.945Z,9.07
2022-11-09T05:04:14.657Z,8.93
2022-11-09T05:06:41.745Z,9.43
2022-11-09T05:09:09.408Z,7.60
2022-11-09T05:11:37.242Z,7.28
2022-11-09T05:14:04.687Z,5.82
2022-11-09T05:16:32.954Z,5.00
2022-11-09T05:19:00.059Z,4.65
2022-11-09T05:21:27.734Z,5.47
2022-11-09T05:24:01.702Z,4.65
2022-11-09T05:26:32.178Z,4.88
2022-11-09T05:29:00.864Z,5.00
2022-11-09T05:31:28.731Z,5.18
2022-11-09T05:33:56.093Z,5.40
2022-11-09T05:36:23.592Z,5.75
2022-11-09T05:38:51.187Z,5.68
2022-11-09T05:41:18.275Z,5.97
2022-11-09T05:43:46.607Z,6.10
2022-11-09T05:46:15.194Z,6.03
2022-11-09T05:48:42.980Z,5.75
2022-11-09T05:51:12.165Z,5.68
2022-11-09T05:53:43.689Z,5.78
2022-11-09T05:56:14.100Z,6.05
2022-11-09T05:58:42.252Z,5.40
2022-11-09T06:01:14.686Z,6.05
2022-11-09T06:03:44.352Z,8.10
2022-11-09T06:06:16.560Z,7.63
2022-11-09T06:08:44.231Z,7.75
2022-11-09T06:11:16.790Z,6.45
2022-11-09T06:13:50.887Z,6.75
2022-11-09T06:16:18.696Z,6.63
2022-11-09T06:18:45.690Z,6.78
2022-11-09T06:21:12.883Z,6.68
2022-11-09T06:23:39.915Z,8.55
2022-11-09T06:26:11.125Z,8.05
2022-11-09T06:28:40.796Z,9.68
2022-11-09T06:31:10.542Z,8.15
2022-11-09T06:33:37.584Z,8.90
2022-11-09T06:36:05.149Z,7.10
2022-11-09T06:38:32.541Z,6.50
2022-11-09T06:41:00.618Z,6.70
2022-11-09T06:43:28.212Z,6.90
2022-11-09T06:45:55.434Z,7.30
2022-11-09T06:48:23.036Z,6.95
2022-11-09T06:50:50.084Z,7.35
2022-11-09T06:53:18.303Z,8.30
2022-11-09T06:55:50.508Z,8.80
2022-11-09T06:58:18.523Z,7.80
2022-11-09T07:00:46.104Z,7.00
2022-11-09T07:03:18.348Z,8.15
2022-11-09T07:05:47.126Z,8.57
2022-11-09T07:08:17.202Z,8.02
2022-11-09T07:10:45.235Z,17.13
2022-11-09T07:13:12.656Z,7.63
2022-11-09T07:15:39.980Z,7.22
2022-11-09T07:18:10.415Z,7.85
2022-11-09T07:20:37.861Z,9.10
2022-11-09T07:23:05.605Z,8.10
2022-11-09T07:25:32.962Z,9.07
2022-11-09T07:28:07.736Z,8.35
2022-11-09T07:30:37.082Z,8.05
2022-11-09T07:33:11.990Z,8.15
2022-11-09T07:35:39.040Z,9.48
2022-11-09T07:38:06.123Z,8.32
2022-11-09T07:40:34.522Z,8.15
2022-11-09T07:43:03.080Z,9.05
2022-11-09T07:45:32.042Z,8.13
2022-11-09T07:48:07.947Z,7.70
2022-11-09T07:50:37.009Z,8.60
2022-11-09T07:53:07.275Z,7.93
2022-11-09T07:55:36.059Z,8.27
2022-11-09T07:58:06.455Z,9.45
2022-11-09T08:00:35.642Z,8.45
2022-11-09T08:03:02.746Z,7.90
2022-11-09T08:05:30.304Z,7.82
2022-11-09T08:08:00.059Z,8.93
2022-11-09T08:10:28.505Z,8.73
2022-11-09T08:13:04.574Z,8.38
2022-11-09T08:15:32.601Z,7.82
2022-11-09T08:18:08.829Z,8.77
2022-11-09T08:20:36.009Z,8.05
2022-11-09T08:23:05.038Z,9.68
2022-11-09T08:25:35.935Z,11.30
2022-11-09T08:28:04.614Z,10.48
2022-11-09T08:30:32.697Z,8.55
2022-11-09T08:33:01.250Z,7.97
2022-11-09T08:35:29.643Z,8.20
2022-11-09T08:37:59.974Z,8.05
2022-11-09T08:40:27.121Z,15.02
2022-11-09T08:42:54.358Z,11.02
2022-11-09T08:45:21.929Z,8.68
2022-11-09T08:47:59.405Z,7.65
2022-11-09T08:50:28.648Z,7.88
2022-11-09T08:52:56.183Z,7.28
2022-11-09T08:55:23.659Z,8.68
2022-11-09T08:57:56.570Z,9.30
2022-11-09T09:00:23.959Z,9.77
2022-11-09T09:02:51.079Z,9.15
2022-11-09T09:05:18.765Z,8.55
2022-11-09T09:07:46.213Z,8.57
2022-11-09T09:10:13.656Z,10.60
2022-11-09T09:12:40.641Z,8.43
2022-11-09T09:15:08.090Z,12.95
2022-11-09T09:17:35.774Z,9.98
2022-11-09T09:20:04.439Z,9.52
2022-11-09T09:22:33.780Z,11.55
2022-11-09T09:25:02.007Z,11.23
2022-11-09T09:27:30.081Z,9.80
2022-11-09T09:29:57.681Z,8.00
2022-11-09T09:32:25.575Z,7.75
2022-11-09T09:34:53.702Z,7.03
2022-11-09T09:37:20.866Z,7.28
2022-11-09T09:39:48.109Z,6.88
2022-11-09T09:42:24.687Z,6.35
2022-11-09T09:45:26.544Z,7.22
2022-11-09T09:48:00.758Z,8.35
2022-11-09T09:50:45.724Z,6.78
2022-11-09T09:53:24.688Z,6.80
2022-11-09T09:56:02.138Z,6.40
2022-11-09T09:58:32.850Z,7.03
2022-11-09T10:01:10.269Z,6.63
2022-11-09T10:03:38.071Z,6.30
2022-11-09T10:06:14.260Z,7.78
2022-11-09T10:08:52.914Z,9.38
2022-11-09T10:11:57.328Z,7.70
2022-11-09T10:15:03.949Z,7.85
2022-11-09T10:17:40.001Z,9.32
2022-11-09T10:20:26.311Z,11.38
2022-11-09T10:23:24.716Z,7.65
2022-11-09T10:26:04.905Z,8.80
2022-11-09T10:29:01.607Z,7.55
2022-11-09T10:31:32.870Z,6.90
2022-11-09T10:34:08.404Z,7.18
2022-11-09T10:37:11.129Z,6.80
2022-11-09T10:39:48.035Z,7.47
2022-11-09T10:42:34.376Z,6.95
2022-11-09T10:45:36.098Z,7.30
2022-11-09T10:48:35.305Z,6.82
2022-11-09T10:51:29.844Z,7.15
2022-11-09T10:54:21.070Z,7.00
2022-11-09T10:57:12.348Z,7.03
2022-11-09T11:00:01.554Z,8.00
2022-11-09T11:02:48.597Z,11.88
2022-11-09T11:05:35.181Z,10.55
2022-11-09T11:08:25.454Z,8.43
2022-11-09T11:11:36.189Z,6.57
2022-11-09T11:14:41.964Z,6.68
2022-11-09T11:17:34.886Z,12.05
2022-11-09T11:20:29.441Z,9.82
2022-11-09T11:23:23.788Z,8.07
2022-11-09T11:26:27.581Z,6.63
2022-11-09T11:29:21.638Z,8.35
2022-11-09T11:32:14.839Z,7.13
2022-11-09T11:35:01.561Z,6.78
2022-11-09T11:38:03.674Z,9.00
2022-11-09T11:41:09.707Z,8.40
2022-11-09T11:44:14.167Z,9.23
2022-11-09T11:47:10.802Z,9.02
2022-11-09T11:50:15.123Z,17.67
2022-11-09T11:53:32.080Z,11.35
2022-11-09T11:56:26.426Z,9.45
2022-11-09T11:59:24.204Z,8.93
2022-11-09T12:02:40.594Z,8.45
2022-11-09T12:05:44.110Z,6.88
2022-11-09T12:08:52.533Z,6.78
2022-11-09T12:11:59.573Z,5.60
2022-11-09T12:15:22.261Z,8.18
2022-11-09T12:18:14.294Z,3.20
2022-11-09T12:21:08.682Z,3.08
2022-11-09T12:24:19.692Z,2.80
2022-11-09T12:27:53.467Z,6.70
2022-11-09T12:30:53.535Z,6.30
2022-11-09T12:33:54.481Z,3.17
2022-11-09T12:36:51.280Z,6.72
2022-11-09T12:39:50.324Z,3.47
2022-11-09T12:42:49.541Z,6.53
2022-11-09T12:45:39.137Z,2.55
2022-11-09T12:48:26.091Z,2.90
2022-11-09T12:51:11.819Z,3.05
2022-11-09T12:54:00.183Z,3.00
2022-11-09T12:56:55.943Z,3.15
2022-11-09T12:59:51.517Z,3.20
2022-11-09T13:02:54.312Z,3.25
2022-11-09T13:05:40.578Z,3.35
2022-11-09T13:08:29.579Z,8.52
2022-11-09T13:11:18.398Z,3.97
2022-11-09T13:14:22.282Z,3.00
2022-11-09T13:17:36.691Z,3.50
2022-11-09T13:20:53.802Z,3.53
2022-11-09T13:26:48.672Z,3.65
2022-11-09T13:29:41.673Z,3.63
2022-11-09T13:32:29.016Z,5.82
2022-11-09T13:35:42.725Z,4.55
2022-11-09T13:38:32.295Z,4.13
2022-11-09T13:41:30.006Z,4.75
2022-11-09T13:44:24.383Z,3.90
2022-11-09T13:47:49.696Z,3.75
2022-11-09T13:50:36.174Z,4.00
2022-11-09T13:53:31.952Z,4.07
2022-11-09T13:56:29.496Z,3.05
2022-11-09T13:59:21.076Z,3.28
2022-11-09T14:02:23.164Z,3.33
2022-11-09T14:05:26.257Z,3.55
2022-11-09T14:08:23.988Z,3.60
2022-11-09T14:11:28.817Z,3.88
2022-11-09T14:14:43.744Z,4.40
2022-11-09T14:17:45.258Z,4.38
2022-11-09T14:20:39.887Z,5.43
2022-11-09T14:23:30.829Z,4.13
2022-11-09T14:26:22.885Z,3.78
2022-11-09T14:29:21.214Z,4.00
2022-11-09T14:32:28.563Z,4.47
2022-11-09T14:35:31.321Z,4.40
2022-11-09T14:41:05.435Z,4.80
2022-11-09T14:43:53.032Z,5.15
2022-11-09T14:46:38.921Z,5.45
2022-11-09T14:49:27.471Z,4.97
2022-11-09T14:52:18.641Z,5.22
2022-11-09T14:55:04.928Z,5.60
2022-11-09T14:57:54.150Z,5.15
2022-11-09T15:00:44.804Z,5.80
2022-11-09T15:03:31.499Z,5.50
2022-11-09T15:06:18.069Z,5.82
2022-11-09T15:09:15.058Z,20.73
2022-11-09T15:12:01.382Z,5.80
2022-11-09T15:14:53.213Z,5.38
2022-11-09T15:17:47.635Z,5.65
2022-11-09T15:20:34.582Z,5.55
2022-11-09T15:23:37.455Z,5.43
2022-11-09T15:26:34.023Z,5.40
2022-11-09T15:29:38.534Z,5.15
2022-11-09T15:32:24.653Z,5.50
2022-11-09T15:35:17.608Z,4.88
2022-11-09T15:40:49.414Z,5.82
2022-11-09T15:43:35.591Z,6.28
2022-11-09T15:46:27.777Z,4.82
2022-11-09T15:52:01.505Z,6.07
2022-11-09T15:54:47.811Z,5.95
2022-11-09T15:57:33.052Z,5.18
2022-11-09T16:00:21.423Z,4.95
2022-11-09T16:03:07.581Z,5.35
2022-11-09T16:05:53.539Z,5.38
2022-11-09T16:08:39.351Z,5.07
2022-11-09T16:11:25.424Z,5.20
2022-11-09T16:14:11.002Z,6.28
2022-11-09T16:16:56.420Z,4.97
2022-11-09T16:19:45.569Z,5.25
2022-11-09T16:22:35.468Z,5.60
2022-11-09T16:25:22.334Z,5.43
2022-11-09T16:28:08.371Z,5.85
2022-11-09T16:30:53.844Z,7.50
2022-11-09T16:33:40.351Z,5.20
2022-11-09T16:36:26.534Z,6.50
2022-11-09T16:39:17.324Z,4.25
2022-11-09T16:42:10.556Z,5.97
2022-11-09T16:44:59.081Z,4.22
2022-11-09T16:47:49.664Z,4.47
2022-11-09T16:50:35.086Z,6.93
2022-11-09T16:53:26.585Z,3.90
2022-11-09T16:56:13.523Z,4.18
2022-11-09T16:58:59.218Z,11.10
2022-11-09T17:01:56.284Z,6.75
2022-11-09T17:04:42.009Z,5.43
2022-11-09T17:07:28.646Z,5.78
2022-11-09T17:10:14.478Z,4.40
2022-11-09T17:13:00.150Z,3.67
2022-11-09T17:15:49.193Z,3.40
2022-11-09T17:18:34.885Z,2.63
2022-11-09T17:21:21.257Z,2.90
2022-11-09T17:24:06.812Z,2.53
2022-11-09T17:26:52.088Z,3.88
2022-11-09T17:29:38.761Z,2.63
2022-11-09T17:32:28.360Z,2.65
2022-11-09T17:35:14.323Z,2.53
2022-11-09T17:38:01.345Z,3.70
2022-11-09T17:40:46.775Z,3.33
2022-11-09T17:43:34.209Z,3.20
2022-11-09T17:46:21.820Z,2.63
2022-11-09T17:49:10.478Z,2.55
2022-11-09T17:51:57.007Z,2.45
2022-11-09T17:54:43.346Z,2.20
2022-11-09T17:57:28.960Z,2.47
2022-11-09T18:00:15.319Z,2.63
2022-11-09T18:03:00.956Z,2.20
2022-11-09T18:05:47.024Z,2.65
2022-11-09T18:08:32.676Z,2.80
2022-11-09T18:11:18.288Z,2.95
2022-11-09T18:14:04.165Z,2.60
2022-11-09T18:16:49.727Z,3.30
2022-11-09T18:19:35.108Z,3.30
2022-11-09T18:22:20.323Z,4.28
2022-11-09T18:25:06.032Z,2.97
2022-11-09T18:27:53.800Z,4.03
2022-11-09T18:30:41.886Z,3.20
2022-11-09T18:33:28.607Z,3.80
2022-11-09T18:36:16.550Z,3.05
2022-11-09T18:39:03.393Z,3.72
2022-11-09T18:41:49.272Z,7.63
2022-11-09T18:44:36.440Z,6.70
2022-11-09T18:47:23.853Z,11.27
2022-11-09T18:50:09.311Z,4.43
2022-11-09T18:52:54.801Z,7.13
2022-11-09T18:55:40.108Z,4.72
2022-11-09T18:58:25.635Z,7.38
2022-11-09T19:01:11.782Z,3.50
2022-11-09T19:04:00.663Z,4.72
2022-11-09T19:06:47.024Z,2.50
2022-11-09T19:09:38.705Z,3.58
2022-11-09T19:12:25.546Z,2.75
2022-11-09T19:15:11.881Z,3.10
2022-11-09T19:17:57.788Z,4.90
2022-11-09T19:20:43.782Z,3.13
2022-11-09T19:23:34.411Z,2.50
2022-11-09T19:26:22.692Z,2.00
2022-11-09T19:29:09.533Z,1.63
2022-11-09T19:31:55.424Z,1.60
2022-11-09T19:34:42.967Z,1.73
2022-11-09T19:37:29.709Z,2.20
2022-11-09T19:40:15.525Z,1.45
2022-11-09T19:43:01.453Z,2.10
2022-11-09T19:45:47.034Z,1.98
2022-11-09T19:48:38.024Z,2.25
2022-11-09T19:51:24.366Z,1.95
2022-11-09T19:54:12.203Z,3.22
2022-11-09T19:56:57.936Z,3.20
2022-11-09T19:59:43.812Z,2.72
2022-11-09T20:02:29.581Z,3.20
2022-11-09T20:05:15.484Z,3.10
2022-11-09T20:08:03.870Z,2.78
2022-11-09T20:10:53.236Z,4.00
2022-11-09T20:13:40.767Z,2.95
2022-11-09T20:16:26.550Z,4.90
2022-11-09T20:19:13.381Z,5.00
2022-11-09T20:22:02.845Z,7.05
2022-11-09T20:24:49.673Z,6.32
2022-11-09T20:27:37.487Z,3.17
2022-11-09T20:30:24.821Z,2.72
2022-11-09T20:33:10.710Z,4.13
2022-11-09T20:35:56.481Z,7.45
2022-11-09T20:38:42.472Z,3.05
2022-11-09T20:41:28.925Z,3.33
2022-11-09T20:44:15.759Z,2.75
2022-11-09T20:47:02.655Z,3.55
2022-11-09T20:49:48.707Z,3.60
2022-11-09T20:52:35.241Z,2.67
2022-11-09T20:55:20.950Z,3.00
2022-11-09T20:58:07.593Z,3.83
2022-11-09T21:01:07.952Z,4.10
2022-11-09T21:03:56.829Z,4.57
2022-11-09T21:06:43.594Z,5.75
2022-11-09T21:09:29.364Z,7.07
2022-11-09T21:12:25.119Z,6.65
2022-11-09T21:15:11.081Z,5.03
2022-11-09T21:17:56.784Z,4.97
2022-11-09T21:20:43.413Z,5.18
2022-11-09T21:23:49.178Z,6.03
2022-11-09T21:26:53.895Z,5.00
2022-11-09T21:29:52.110Z,4.30
2022-11-09T21:32:39.685Z,3.65
2022-11-09T21:35:25.450Z,3.13
2022-11-09T21:38:10.840Z,3.25
2022-11-09T21:41:02.979Z,3.38
2022-11-09T21:43:54.538Z,3.50
2022-11-09T21:46:41.703Z,3.30
2022-11-09T21:49:27.324Z,3.15
2022-11-09T21:52:13.165Z,4.63
2022-11-09T21:54:58.746Z,4.30
2022-11-09T21:57:44.704Z,4.93
2022-11-09T22:00:30.129Z,5.07
2022-11-09T22:03:16.311Z,5.32
2022-11-09T22:06:01.755Z,5.70
2022-11-09T22:08:47.786Z,5.35
2022-11-09T22:11:52.210Z,5.25
2022-11-09T22:14:56.206Z,5.00
2022-11-09T22:17:43.020Z,5.30
2022-11-09T22:20:47.057Z,4.40
2022-11-09T22:23:32.667Z,5.15
2022-11-09T22:26:18.298Z,5.15
2022-11-09T22:29:05.890Z,4.85
2022-11-09T22:31:51.588Z,4.60
2022-11-09T22:34:38.242Z,5.32
2022-11-09T22:37:23.918Z,6.20
2022-11-09T22:40:10.262Z,5.60
2022-11-09T22:42:57.127Z,5.53
2022-11-09T22:45:43.219Z,5.32
2022-11-09T22:48:31.465Z,5.57
2022-11-09T22:51:18.469Z,5.50
2022-11-09T22:54:04.251Z,6.10
2022-11-09T22:56:49.626Z,5.68
2022-11-09T22:59:35.538Z,5.55
2022-11-09T23:02:21.969Z,4.95
2022-11-09T23:05:08.985Z,4.65
2022-11-09T23:07:55.259Z,4.72
2022-11-09T23:10:40.831Z,4.25
2022-11-09T23:13:26.572Z,3.97
2022-11-09T23:16:12.280Z,4.38
2022-11-09T23:18:58.629Z,3.83
2022-11-09T23:21:44.671Z,4.15
2022-11-09T23:24:48.945Z,3.65
2022-11-09T23:27:34.708Z,3.85
2022-11-09T23:30:22.368Z,3.60
2022-11-09T23:33:07.822Z,3.90
2022-11-09T23:35:53.319Z,3.22
2022-11-09T23:38:39.825Z,3.17
2022-11-09T23:41:25.462Z,3.47
2022-11-09T23:44:12.148Z,3.50
2022-11-09T23:46:57.512Z,3.30
2022-11-09T23:49:44.384Z,3.40
2022-11-09T23:52:29.584Z,3.50
2022-11-09T23:55:15.278Z,3.40
2022-11-09T23:58:02.148Z,3.17
